createdAt,value
2018-09-20T00:01:15.690Z,12.39
2018-09-20T00:16:49.827Z,12.04
2018-09-20T00:32:24.424Z,11.53
2018-09-20T00:47:58.128Z,11.44
2018-09-20T01:03:32.171Z,11.09
2018-09-20T01:19:07.065Z,10.76
2018-09-20T01:34:40.759Z,10.52
2018-09-20T01:50:14.604Z,10.57
2018-09-20T02:05:48.993Z,10.43
2018-09-20T02:21:22.918Z,10.23
2018-09-20T02:36:57.298Z,10.19
2018-09-20T02:53:16.921Z,9.95
2018-09-20T03:08:50.863Z,10.16
2018-09-20T03:24:23.963Z,10.04
2018-09-20T03:39:57.406Z,9.81
2018-09-20T03:55:31.707Z,9.71
2018-09-20T04:11:06.392Z,9.80
2018-09-20T04:26:40.167Z,10.39
2018-09-20T04:42:14.416Z,12.64
2018-09-20T04:57:48.628Z,15.74
2018-09-20T05:13:23.295Z,18.18
2018-09-20T05:28:57.287Z,19.44
2018-09-20T05:44:31.573Z,21.14
2018-09-20T06:00:05.715Z,22.40
2018-09-20T06:15:40.148Z,22.46
2018-09-20T06:31:13.922Z,22.94
2018-09-20T06:46:47.329Z,23.37
2018-09-20T07:02:21.512Z,25.54
2018-09-20T07:17:54.960Z,28.87
2018-09-20T07:33:28.178Z,26.77
2018-09-20T07:49:02.016Z,26.60
2018-09-20T08:04:35.373Z,26.68
2018-09-20T08:20:08.075Z,25.66
2018-09-20T08:35:41.345Z,26.84
2018-09-20T08:51:14.255Z,26.01
2018-09-20T09:06:48.602Z,26.00
2018-09-20T09:22:22.653Z,25.34
2018-09-20T09:37:56.927Z,25.89
2018-09-20T09:53:31.040Z,25.71
2018-09-20T10:09:04.284Z,25.88
2018-09-20T10:24:37.193Z,26.35
2018-09-20T10:40:11.121Z,26.82
2018-09-20T10:55:45.261Z,27.05
2018-09-20T11:11:18.382Z,27.51
2018-09-20T11:26:51.265Z,27.23
2018-09-20T11:42:25.168Z,25.76
2018-09-20T11:57:59.316Z,24.96
2018-09-20T12:13:33.065Z,25.72
2018-09-20T12:29:07.014Z,25.85
2018-09-20T12:44:40.088Z,25.99
2018-09-20T13:00:14.216Z,26.05
2018-09-20T13:15:48.030Z,26.09
2018-09-20T13:31:21.452Z,25.18
2018-09-20T13:46:56.374Z,25.52
2018-09-20T14:02:30.340Z,25.34
2018-09-20T14:18:05.126Z,24.98
2018-09-20T14:33:38.115Z,24.56
2018-09-20T14:49:13.200Z,23.99
2018-09-20T15:04:47.206Z,23.23
2018-09-20T15:20:21.535Z,22.80
2018-09-20T15:35:56.220Z,22.37
2018-09-20T15:51:30.621Z,21.61
2018-09-20T16:07:04.401Z,20.72
2018-09-20T16:22:38.478Z,20.26
2018-09-20T16:38:31.853Z,19.83
2018-09-20T16:54:05.973Z,19.45
2018-09-20T17:09:40.583Z,18.91
2018-09-20T17:25:15.704Z,18.67
2018-09-20T17:40:52.810Z,18.45
2018-09-20T17:56:27.744Z,18.75
2018-09-20T18:12:01.849Z,18.72
2018-09-20T18:27:36.272Z,17.96
2018-09-20T18:43:10.369Z,17.41
2018-09-20T18:58:45.356Z,17.28
2018-09-20T19:14:19.228Z,16.89
2018-09-20T19:29:54.054Z,16.43
2018-09-20T19:45:28.864Z,15.93
2018-09-20T20:01:03.147Z,16.08
2018-09-20T20:16:37.532Z,16.12
2018-09-20T20:32:11.522Z,16.41
2018-09-20T20:47:45.136Z,16.29
2018-09-20T21:03:19.499Z,16.37
2018-09-20T21:18:52.338Z,17.46
2018-09-20T21:34:26.616Z,16.10
2018-09-20T21:49:59.844Z,15.38
2018-09-20T22:05:34.524Z,15.36
2018-09-20T22:21:07.850Z,15.28
2018-09-20T22:36:42.153Z,14.88
2018-09-20T22:52:15.375Z,14.35
2018-09-20T23:07:48.747Z,13.59
2018-09-20T23:23:21.768Z,13.47
2018-09-20T23:38:54.712Z,13.28
2018-09-20T23:54:28.944Z,13.23
